Flight Track Log - Related Links

Times and Time Zones

All times are in EDT time to prevent confusion due to time zone crossing. See the UAL4498 flight status page for this flight to view local times or setup timezone preferences in your user account.

Time Position Orientation Groundspeed Altitude Reporting Facility
EDT Latitude Longitude Course Direction KTS MPH feet Rate Location/Type
Wed 07:35:13 PM 39.3167 -94.7167 82° East 172 198 1,900  Level Kansas City TRACON
Wed 07:35:37 PM 39.3333 -94.7000 38° Northeast 178 205 2,800 2,143 Climbing Kansas City TRACON
Wed 07:36:37 PM 39.3833 -94.6500 38° Northeast 243 280 4,900 2,250 Climbing Kansas City TRACON
Wed 07:37:13 PM 39.3858 -94.6019 86° East 252 290 6,400 2,510 Climbing Kansas City Center
Wed 07:38:00 PM 39.3470 -94.2286 80° East  Level FlightAware Approximate
Wed 07:38:15 PM 39.3856 -94.5122 90° East 261 300 9,000  Level Kansas City Center
Wed 07:39:00 PM 39.3652 -94.0942 80° East  Level FlightAware Approximate
Wed 07:39:17 PM 39.3858 -94.3911 90° East 310 357 10,800  Level Kansas City Center
Wed 07:40:00 PM 39.3805 -93.9592 82° East  Level FlightAware Approximate
Wed 07:40:19 PM 39.3869 -94.2694 89° East 354 407 12,300  Level Kansas City Center
Wed 07:41:20 PM 39.3867 -94.1206 90° East 370 426 14,500 2,049 Climbing Kansas City Center
Wed 07:42:22 PM 39.3853 -93.9911 91° East 377 434 16,500 1,984 Climbing Kansas City Center
Wed 07:43:24 PM 39.4006 -93.8369 83° East 386 444 18,600 1,935 Climbing Kansas City Center
Wed 07:44:26 PM 39.4181 -93.7053 80° East 390 449 20,500 1,887 Climbing Kansas City Center
Wed 07:45:28 PM 39.4342 -93.5686 81° East 389 448 22,500 1,902 Climbing Kansas City Center
Wed 07:46:29 PM 39.4522 -93.4317 80° East 389 448 24,400 2,098 Climbing Kansas City Center
Wed 07:47:31 PM 39.4714 -93.2675 81° East 389 448 26,800 2,129 Climbing Kansas City Center
Wed 07:48:33 PM 39.4867 -93.1328 82° East 385 443 28,800 1,935 Climbing Kansas City Center
Wed 07:49:35 PM 39.5014 -93.0011 82° East 378 435 30,800 1,839 Climbing Kansas City Center
Wed 07:50:37 PM 39.5161 -92.8725 82° East 370 426 32,600 1,463 Climbing Kansas City Center
Wed 07:51:38 PM 39.5308 -92.7469 81° East 364 419 33,800 1,122 Climbing Kansas City Center
Wed 07:52:40 PM 39.5489 -92.5906 81° East 365 420 34,900 581 Climbing Kansas City Center
Wed 07:53:42 PM 39.5636 -92.4536 82° East 376 433 35,000 48 Climbing Kansas City Center
Wed 07:54:44 PM 39.5803 -92.3022 82° East 406 467 35,000  Level Kansas City Center
Wed 07:55:45 PM 39.5981 -92.1433 82° East 437 503 35,000  Level Kansas City Center
Wed 07:56:47 PM 39.6164 -91.9778 82° East 459 528 35,000  Level Kansas City Center
Wed 07:57:49 PM 39.6372 -91.7789 82° East 467 537 35,000  Level Kansas City Center
Wed 07:58:51 PM 39.6536 -91.6150 83° East 466 536 35,000  Level Kansas City Center
Wed 07:59:53 PM 39.6719 -91.4478 82° East 470 541 35,000  Level Kansas City Center
Wed 08:00:54 PM 39.6900 -91.2700 82° East 472 543 35,000  Level Kansas City Center
Wed 08:01:56 PM 39.7064 -91.1039 83° East 467 537 35,000  Level Kansas City Center
Wed 08:02:58 PM 39.7233 -90.9394 82° East 462 532 35,000  Level Kansas City Center
Wed 08:03:59 PM 39.7389 -90.7708 83° East 466 536 35,000  Level Kansas City Center
Wed 08:05:01 PM 39.7578 -90.5783 83° East 469 540 35,000  Level Kansas City Center
Wed 08:06:03 PM 39.7736 -90.4111 83° East 469 540 35,000  Level Kansas City Center
Wed 08:07:05 PM 39.7883 -90.2456 83° East 466 536 35,000  Level Kansas City Center
Wed 08:08:06 PM 39.8042 -90.0783 83° East 468 539 35,000  Level Kansas City Center
Wed 08:09:08 PM 39.8181 -89.9111 84° East 468 539 35,000  Level Kansas City Center
Wed 08:10:10 PM 39.8336 -89.7433 83° East 469 540 35,000 195 Level Kansas City Center
Wed 08:11:11 PM 39.8403 -89.5719 87° East 472 543 35,400 829 Climbing Kansas City Center
Wed 08:12:13 PM 39.8403 -89.3725 90° East 467 537 36,700 774 Climbing Kansas City Center
Wed 08:13:15 PM 39.8411 -89.2081 90° East 460 529 37,000 145 Climbing Kansas City Center
Wed 08:14:17 PM 39.8408 -89.0386 90° East 465 535 37,000  Level Kansas City Center
Wed 08:15:18 PM 39.8411 -88.8683 90° East 470 541 37,000  Level Kansas City Center
Wed 08:16:20 PM 39.8419 -88.6986 90° East 471 542 37,000  Level Kansas City Center
Wed 08:17:22 PM 39.8422 -88.5294 90° East 470 541 37,000  Level Kansas City Center
Wed 08:18:23 PM 39.8419 -88.3222 90° East 476 548 37,000  Level Kansas City Center
Wed 08:19:25 PM 39.8419 -88.1617 90° East 474 545 37,000  Level Kansas City Center
Wed 08:19:41 PM 39.8397 -88.1039 93° East 473 544 37,000  Level Indianapolis Center
Wed 08:20:43 PM 39.8506 -87.9311 85° East 476 548 37,000  Level Indianapolis Center
Wed 08:21:44 PM 39.8769 -87.7567 79° East 483 556 37,000  Level Indianapolis Center
Wed 08:22:46 PM 39.8986 -87.5856 81° East 478 550 37,000  Level Indianapolis Center
Wed 08:25:30 PM 39.9553 -87.1308 81° East 474 545 37,000  Level Chicago Center
Wed 08:25:50 PM 39.9622 -87.0736 81° East 476 548 37,000  Level Indianapolis Center
Wed 08:26:52 PM 39.9819 -86.9008 81° East 478 550 37,000  Level Indianapolis Center
Wed 08:27:53 PM 40.0028 -86.7278 81° East 478 550 37,000  Level Indianapolis Center
Wed 08:28:55 PM 40.0239 -86.5528 81° East 482 555 37,000  Level Indianapolis Center
Wed 08:29:56 PM 40.0436 -86.3781 82° East 481 554 37,000  Level Indianapolis Center
Wed 08:30:15 PM 40.0514 -86.3197 80° East 483 556 37,000  Level Chicago Center
Wed 08:31:17 PM 40.0714 -86.1433 82° East 483 556 37,000  Level Chicago Center
Wed 08:31:59 PM 40.0869 -85.9967 82° East 482 555 37,000  Level Indianapolis Center
Wed 08:33:01 PM 40.1061 -85.8214 82° East 483 556 37,000  Level Indianapolis Center
Wed 08:34:02 PM 40.1242 -85.6486 82° East 478 550 37,000  Level Indianapolis Center
Wed 08:34:23 PM 40.1311 -85.5919 81° East 477 549 37,000  Level Chicago Center
Wed 08:35:26 PM 40.1489 -85.4214 82° East 473 544 37,000  Level Chicago Center
Wed 08:36:06 PM 40.1617 -85.3103 81° East 466 536 37,000  Level Indianapolis Center
Wed 08:37:07 PM 40.1967 -85.1458 74° East 470 541 37,000  Level Indianapolis Center
Wed 08:38:08 PM 40.2567 -84.9897 63° Northeast 478 550 37,000  Level Indianapolis Center
Wed 08:39:10 PM 40.3219 -84.8169 64° Northeast 481 554 37,000  Level Indianapolis Center
Wed 08:40:11 PM 40.3806 -84.6603 64° Northeast 475 547 37,000  Level Indianapolis Center
Wed 08:41:13 PM 40.4389 -84.5053 64° Northeast 470 541 37,000  Level Indianapolis Center
Wed 08:42:14 PM 40.4964 -84.3481 64° Northeast 471 542 37,000  Level Indianapolis Center
Wed 08:43:16 PM 40.5539 -84.1933 64° Northeast 466 536 37,000  Level Indianapolis Center
Wed 08:44:17 PM 40.6106 -84.0378 64° Northeast 466 536 37,000  Level Indianapolis Center
Wed 08:45:19 PM 40.6675 -83.8831 64° Northeast 463 533 37,000  Level Indianapolis Center
Wed 08:46:20 PM 40.7239 -83.7286 64° Northeast 462 532 37,000  Level Indianapolis Center
Wed 08:47:22 PM 40.7789 -83.5739 65° Northeast 461 531 37,000  Level Indianapolis Center
Wed 08:47:45 PM 40.8006 -83.5181 63° Northeast 455 524 37,000  Level Cleveland Center
Wed 08:48:45 PM 40.8483 -83.3611 68° East 455 524 37,000  Level Cleveland Center
Wed 08:49:45 PM 40.8814 -83.2003 75° East 455 524 37,000  Level Cleveland Center
Wed 08:50:45 PM 40.9103 -83.0231 78° East 450 518 37,000  Level Cleveland Center
Wed 08:51:45 PM 40.9431 -82.8564 75° East 455 524 37,000  Level Cleveland Center
Wed 08:52:45 PM 40.9731 -82.6981 76° East 450 518 37,000  Level Cleveland Center
Wed 08:53:45 PM 41.0031 -82.5367 76° East 450 518 37,000  Level Cleveland Center
Wed 08:54:45 PM 41.0350 -82.3722 76° East 450 518 37,000  Level Cleveland Center
Wed 08:55:45 PM 41.0625 -82.2133 77° East 449 517 37,000  Level Cleveland Center
Wed 08:56:45 PM 41.0917 -82.0517 76° East 449 517 37,000  Level Cleveland Center
Wed 08:57:45 PM 41.1250 -81.8869 75° East 449 517 37,000  Level Cleveland Center
Wed 08:58:45 PM 41.1536 -81.7275 77° East 449 517 37,000  Level Cleveland Center
Wed 08:59:45 PM 41.1803 -81.5681 77° East 449 517 37,000  Level Cleveland Center
Wed 09:00:45 PM 41.2044 -81.4083 79° East 449 517 37,000  Level Cleveland Center
Wed 09:01:46 PM 41.2325 -81.2486 77° East 449 517 37,000  Level Cleveland Center
Wed 09:02:45 PM 41.2606 -81.0886 77° East 449 517 37,000  Level Cleveland Center
Wed 09:03:45 PM 41.2839 -80.9506 77° East 443 510 37,000  Level Cleveland Center
Wed 09:04:45 PM 41.3114 -80.7906 77° East 443 510 37,000  Level Cleveland Center
Wed 09:05:45 PM 41.3325 -80.6300 80° East 443 510 37,000  Level Cleveland Center
Wed 09:06:45 PM 41.3469 -80.4669 83° East 448 516 37,000  Level Cleveland Center
Wed 09:07:45 PM 41.3614 -80.3036 83° East 443 510 37,000  Level Cleveland Center
Wed 09:08:45 PM 41.3733 -80.1375 84° East 443 510 37,000  Level Cleveland Center
Wed 09:09:45 PM 41.3850 -79.9606 85° East 443 510 37,000  Level Cleveland Center
Wed 09:10:45 PM 41.3967 -79.7942 85° East 443 510 37,000  Level Cleveland Center
Wed 09:11:45 PM 41.4078 -79.6281 85° East 443 510 37,000  Level Cleveland Center
Wed 09:12:45 PM 41.4208 -79.4644 84° East 443 510 37,000  Level Cleveland Center
Wed 09:13:45 PM 41.4317 -79.2981 85° East 443 510 37,000  Level Cleveland Center
Wed 09:14:45 PM 41.4442 -79.1317 84° East 443 510 37,000  Level Cleveland Center
Wed 09:15:45 PM 41.4547 -78.9681 85° East 443 510 37,000  Level Cleveland Center
Wed 09:16:45 PM 41.4647 -78.8014 85° East 443 510 37,000 -200 Level Cleveland Center
Wed 09:17:45 PM 41.4683 -78.6378 88° East 443 510 36,600 -716 Descending Cleveland Center
Wed 09:19:41 PM 41.4483 -78.3497 95° East 443 510 34,900 -983 Descending New York Center
Wed 09:20:42 PM 41.4375 -78.1906 95° East 438 504 33,700 -1,210 Descending New York Center
Wed 09:21:40 PM 41.4286 -78.0317 94° East 438 504 32,500 -1,210 Descending New York Center
Wed 09:22:41 PM 41.4156 -77.8672 96° East 433 498 31,300 -750 Descending New York Center
Wed 09:23:40 PM 41.4042 -77.7081 95° East 433 498 31,000 -151 Descending New York Center
Wed 09:24:40 PM 41.3944 -77.5494 95° East 433 498 31,000  Level New York Center
Wed 09:25:41 PM 41.3808 -77.3850 96° East 433 498 31,000 -443 Level New York Center
Wed 09:26:42 PM 41.3711 -77.2236 95° East 433 498 30,100 -1,109 Descending New York Center
Wed 09:27:40 PM 41.3589 -77.0619 96° East 433 498 28,800 -1,388 Descending New York Center
Wed 09:28:43 PM 41.3444 -76.8978 97° East 433 498 27,300 -1,550 Descending New York Center
Wed 09:29:40 PM 41.3258 -76.7328 98° East 438 504 25,700 -1,627 Descending New York Center
Wed 09:30:41 PM 41.2833 -76.5800 110° East 443 510 24,100 -1,561 Descending New York Center
Wed 09:31:43 PM 41.2431 -76.4275 109° East 443 510 22,500 -1,613 Descending New York Center
Wed 09:32:40 PM 41.2000 -76.2778 111° Southeast 438 504 20,900 -1,600 Descending New York Center
Wed 09:33:43 PM 41.1664 -76.1483 109° East 428 493 19,300 -1,500 Descending New York Center
Wed 09:34:40 PM 41.1275 -75.9936 108° East 409 471 17,900 -1,983 Descending New York Center
Wed 09:35:41 PM 41.0881 -75.8475 110° East 392 451 15,400 -2,083 Descending New York Center
Wed 09:36:41 PM 41.0517 -75.7181 110° East 381 438 13,700 -1,200 Descending New York Center
Wed 09:37:41 PM 41.0156 -75.5889 110° East 375 432 13,000 -500 Descending New York Center
Wed 09:38:41 PM 40.9847 -75.4742 110° East 375 432 12,700 -800 Descending New York Center
Wed 09:39:41 PM 40.9442 -75.3394 112° Southeast 375 432 11,400 -1,300 Descending New York Center
Wed 09:40:41 PM 40.9206 -75.2472 109° East 321 369 10,100 -1,400 Descending New York Center
Wed 09:41:41 PM 40.8928 -75.1547 112° Southeast 281 323 8,600 -1,488 Descending New York Center
Wed 09:42:42 PM 40.8653 -75.0542 110° East 268 308 7,100 -793 Descending New York Center
Wed 09:43:42 PM 40.8242 -74.9750 124° Southeast 256 295 7,000 -50 Descending New York Center
Wed 09:44:43 PM 40.7789 -74.9036 130° Southeast 256 295 7,000  Level New York Center
Wed 09:45:41 PM 40.7314 -74.8294 130° Southeast 265 305 7,000 -50 Level New York Center
Wed 09:46:42 PM 40.6833 -74.7719 138° Southeast 258 297 6,900 -496 Descending New York Center
Wed 09:47:42 PM 40.6339 -74.6953 130° Southeast 252 290 6,000 -610 Descending New York Center
Wed 09:48:40 PM 40.6817 -74.6406 41° Northeast 175 201 5,700 -568 Descending New York Center
Wed 09:49:17 PM 40.7167 -74.6167 27° Northeast 253 291 5,100 -408 Descending New York TRACON
Wed 09:50:23 PM 40.8000 -74.5833 17° North 252 290 5,000 -48 Descending New York TRACON
Wed 09:51:23 PM 40.8667 -74.5333 30° Northeast 253 291 5,000  Level New York TRACON
Wed 09:52:23 PM 40.9000 -74.4833 49° Northeast 250 288 5,000  Level New York TRACON
Wed 09:52:42 PM 40.9083 -74.4556 68° East 228 262 5,000  Level New York Center
Wed 09:53:43 PM 40.9214 -74.3658 79° East 231 266 5,000 -238 Level New York Center
Wed 09:54:23 PM 40.9333 -74.3000 76° East 237 273 4,600 -600 Descending New York TRACON
Wed 09:55:23 PM 40.9333 -74.2333 90° East 220 253 4,000 -300 Descending New York TRACON
Wed 09:56:23 PM 40.9167 -74.1667 108° East 180 207 4,000 -200 Level New York TRACON
Wed 09:57:23 PM 40.8833 -74.1167 131° Southeast 192 221 3,600 -400 Descending New York TRACON

Login

Don't have an account? Register now (free) for customized features, flight alerts, and more!